X  Stänga Metar väderdata för luftfart     LYNI Nis Airport
Temperatur
86°F Temperatur
70°F Daggpunkt
59% Fuktighet



Vind
7 MPH
11 KM/T
3 M/S
6 KTS



100°
Ö
Nuvarande omständigheter

Klar Klar
Tryck 1006.77 (hPa) - 29.73 (inHg)
Synlighet 6 (mil) - 9.7 (km)
Flygplats
Flygplatskod LYNI

Plats: Nis Airport
Distans: 63 (mi)

Metar:
LYNI 221900Z 10006KT CAVOK 30/21 Q1007 NOSIG

Tid: 22-06-2024 21:00 CEST